Heidelberg, Kentucky
Current Conditions -  °F | °C
As of 11:53 AM on Sunday 21 Dec 2014 (Local Time) from KJKL Reporting Station
Clear Clear  
Wind Chill: 36°   Ceiling: Unl
Heat Index: 36°   Visibility: 10mi
Dew Point: 26°   Wind: 3mph
Humidity: 67%   Direction: NA
Pressure: 30.24"   Gusts: NA
Location:  37.56°N, 83.78°W
Report Text: KJKL 211653Z AUTO VRB03KT 10SM CLR 02/M03 A3024 RMK AO2 SLP250 T00221033
Loading
Personal Weather Stations






























Interactive Weather Map New forecast layout! Learn more

10-Day Weather Forecast

Advertisements
Track Severe Weather on mobile